Time;durP1;ratioP1;P1;durP2;ratioP2;P2;SDS_P1;SDS_P2;PMS_P1;PMS_P2;Temp;Humidity;BMP_temperature;BMP_pressure;BME280_temperature;BME280_humidity;BME280_pressure;Samples;Min_cycle;Max_cycle;Signal;HPM_P1;HPM_P2
2022/06/24 00:00:05;;;;;;;17.52;6.80;;;21.00;99.90;;;;;;5069502;28;20508;-61
2022/06/24 00:02:31;;;;;;;18.88;7.00;;;20.90;99.90;;;;;;5065022;28;20061;-62
2022/06/24 00:05:01;;;;;;;17.65;6.97;;;20.90;99.90;;;;;;5067837;28;20419;-63
2022/06/24 00:07:27;;;;;;;18.33;7.57;;;20.90;99.90;;;;;;5063061;28;20031;-62
2022/06/24 00:09:53;;;;;;;15.63;7.05;;;20.90;99.90;;;;;;5067711;28;20025;-62
2022/06/24 00:12:23;;;;;;;15.35;7.50;;;20.90;99.90;;;;;;5066995;28;20044;-64
2022/06/24 00:15:00;;;;;;;20.25;7.65;;;20.90;99.90;;;;;;5067425;28;20024;-61
2022/06/24 00:17:31;;;;;;;17.10;9.27;;;21.00;99.90;;;;;;5067675;28;20032;-65
2022/06/24 00:19:59;;;;;;;21.83;7.65;;;21.00;99.90;;;;;;5064149;28;20490;-63
2022/06/24 00:22:27;;;;;;;21.10;8.70;;;21.00;99.90;;;;;;5067805;28;20024;-65
2022/06/24 00:25:12;;;;;;;22.58;7.85;;;21.00;99.90;;;;;;5068035;28;20025;-65
2022/06/24 00:27:39;;;;;;;11.35;5.10;;;20.80;99.90;;;;;;5060848;28;20428;-65
2022/06/24 00:30:13;;;;;;;17.02;5.22;;;20.80;99.90;;;;;;5069103;28;20051;-64
2022/06/24 00:32:39;;;;;;;;;;;20.70;99.90;;;;;;5065405;28;20020;-64
2022/06/24 00:35:10;;;;;;;10.23;4.95;;;20.60;99.90;;;;;;5067818;28;20355;-64
2022/06/24 00:37:38;;;;;;;10.80;4.03;;;20.50;99.90;;;;;;5068992;28;20036;-64
2022/06/24 00:40:10;;;;;;;8.98;4.63;;;20.40;99.90;;;;;;5068219;28;20119;-64
2022/06/24 00:42:43;;;;;;;12.02;5.50;;;20.40;99.90;;;;;;5065698;28;20111;-65
2022/06/24 00:45:41;;;;;;;11.03;4.40;;;20.30;99.90;;;;;;5068937;28;20024;-65
2022/06/24 00:48:12;;;;;;;11.68;4.70;;;20.20;99.90;;;;;;5068090;28;20032;-63
2022/06/24 00:50:43;;;;;;;14.70;4.95;;;20.20;99.90;;;;;;5066897;28;20055;-65
2022/06/24 00:53:09;;;;;;;13.60;5.35;;;20.20;99.90;;;;;;5068878;28;20387;-66
2022/06/24 00:55:37;;;;;;;16.92;5.57;;;20.10;99.90;;;;;;5067086;28;20062;-65
2022/06/24 00:58:04;;;;;;;9.50;5.32;;;20.10;99.90;;;;;;5067722;28;20036;-63
2022/06/24 01:00:33;;;;;;;21.55;7.03;;;20.10;99.90;;;;;;5065232;28;20021;-65
2022/06/24 01:03:00;;;;;;;17.60;7.53;;;20.10;99.90;;;;;;5068569;28;20036;-65
2022/06/24 01:05:26;;;;;;;18.42;8.10;;;20.10;99.90;;;;;;5065420;28;20021;-65
2022/06/24 01:07:52;;;;;;;18.30;8.63;;;20.10;99.90;;;;;;5066459;28;20048;-64
2022/06/24 01:10:17;;;;;;;24.27;7.55;;;20.10;99.90;;;;;;5065760;28;20144;-65
2022/06/24 01:12:43;;;;;;;16.05;7.38;;;20.10;99.90;;;;;;5065902;28;20036;-64
2022/06/24 01:15:09;;;;;;;12.02;6.35;;;20.00;99.90;;;;;;5069106;28;20032;-66
2022/06/24 01:17:37;;;;;;;10.82;4.70;;;20.00;99.90;;;;;;5069014;28;20040;-66
2022/06/24 01:20:08;;;;;;;15.75;4.75;;;20.00;99.90;;;;;;5069898;28;20043;-64
2022/06/24 01:22:34;;;;;;;13.27;4.53;;;20.00;99.90;;;;;;5069877;28;20052;-66
2022/06/24 01:25:00;;;;;;;16.77;4.43;;;20.00;99.90;;;;;;5071364;28;20056;-66
2022/06/24 01:27:26;;;;;;;15.32;4.60;;;20.00;99.90;;;;;;5067026;28;20024;-65
2022/06/24 01:29:51;;;;;;;9.10;4.40;;;19.90;99.90;;;;;;5069621;28;20037;-65
2022/06/24 01:32:17;;;;;;;10.00;4.68;;;19.90;99.90;;;;;;5071464;28;20067;-64
2022/06/24 01:34:43;;;;;;;10.27;4.22;;;19.90;99.90;;;;;;5068015;28;20033;-65
2022/06/24 01:37:08;;;;;;;10.57;4.47;;;19.90;99.90;;;;;;5071155;28;20067;-65
2022/06/24 01:39:34;;;;;;;10.68;5.22;;;19.80;99.90;;;;;;5069277;28;20410;-65
2022/06/24 01:41:59;;;;;;;10.13;4.03;;;19.80;99.90;;;;;;5069592;28;20029;-64
2022/06/24 01:44:26;;;;;;;10.23;4.80;;;19.80;99.90;;;;;;5066937;28;20040;-65
2022/06/24 01:46:52;;;;;;;12.40;4.85;;;19.80;99.90;;;;;;5069775;28;20020;-65
2022/06/24 01:49:17;;;;;;;10.82;4.60;;;19.80;99.90;;;;;;5069745;28;20025;-65
2022/06/24 01:51:46;;;;;;;13.43;4.25;;;19.80;99.90;;;;;;5071803;28;20177;-65
2022/06/24 01:54:12;;;;;;;13.20;4.65;;;19.80;99.90;;;;;;5068190;28;20081;-66
2022/06/24 01:56:38;;;;;;;11.43;5.53;;;19.80;99.90;;;;;;5071425;28;20111;-65
2022/06/24 01:59:04;;;;;;;14.32;5.47;;;19.80;99.90;;;;;;5068524;28;20470;-66
2022/06/24 02:01:29;;;;;;;9.38;4.82;;;19.70;99.90;;;;;;5067920;28;20908;-65
2022/06/24 02:03:55;;;;;;;8.60;4.63;;;19.70;99.90;;;;;;5068997;28;20521;-64
2022/06/24 02:06:21;;;;;;;12.88;4.60;;;19.70;99.90;;;;;;5069929;28;20487;-65
2022/06/24 02:08:46;;;;;;;11.18;5.15;;;19.70;99.90;;;;;;5067315;28;20098;-66
2022/06/24 02:14:03;;;;;;;13.07;6.28;;;19.70;99.90;;;;;;5066612;28;20063;-66
2022/06/24 02:16:30;;;;;;;18.08;7.15;;;19.80;99.90;;;;;;5068198;28;20487;-65
2022/06/24 02:18:56;;;;;;;15.35;7.15;;;19.70;99.90;;;;;;5070338;28;20087;-64
2022/06/24 02:21:23;;;;;;;18.52;7.88;;;19.70;99.90;;;;;;5069646;28;20020;-65
2022/06/24 02:23:49;;;;;;;16.63;7.90;;;19.70;99.90;;;;;;5068368;28;20108;-63
2022/06/24 02:26:15;;;;;;;16.25;7.43;;;19.70;99.90;;;;;;5069838;28;20021;-65
2022/06/24 02:28:40;;;;;;;16.60;7.32;;;19.70;99.90;;;;;;5070650;28;20032;-65
2022/06/24 02:31:06;;;;;;;16.40;7.72;;;19.70;99.90;;;;;;5068942;28;20036;-65
2022/06/24 02:33:32;;;;;;;13.38;6.93;;;19.70;99.90;;;;;;5067099;28;20028;-65
2022/06/24 02:35:58;;;;;;;15.32;6.65;;;19.70;99.90;;;;;;5068677;28;20102;-65
2022/06/24 02:38:24;;;;;;;14.43;6.50;;;19.70;99.90;;;;;;5069482;28;20021;-65
2022/06/24 02:40:50;;;;;;;9.93;6.22;;;19.70;99.90;;;;;;5069431;28;20103;-66
2022/06/24 02:43:20;;;;;;;10.65;6.88;;;19.70;99.90;;;;;;5067987;28;20031;-66
2022/06/24 02:45:47;;;;;;;12.23;6.85;;;19.60;99.90;;;;;;5062966;28;20021;-64
2022/06/24 02:48:14;;;;;;;10.57;6.22;;;19.60;99.90;;;;;;5069675;28;20489;-66
2022/06/24 02:50:47;;;;;;;9.65;5.60;;;19.50;99.90;;;;;;5063490;28;20083;-64
2022/06/24 02:53:17;;;;;;;19.03;7.33;;;19.50;99.90;;;;;;5063750;28;20033;-65
2022/06/24 02:55:44;;;;;;;14.52;6.70;;;19.50;99.90;;;;;;5115866;22;20043;-64
2022/06/24 02:58:10;;;;;;;13.85;7.60;;;19.50;99.90;;;;;;5090797;27;20027;-63
2022/06/24 03:00:36;;;;;;;18.23;7.95;;;19.40;99.90;;;;;;5110957;27;20037;-63
2022/06/24 03:03:01;;;;;;;13.88;7.57;;;19.40;99.90;;;;;;5110345;27;20102;-63
2022/06/24 03:05:27;;;;;;;18.52;7.88;;;19.40;99.90;;;;;;5110523;27;20032;-63
2022/06/24 03:07:54;;;;;;;13.77;7.55;;;19.40;99.90;;;;;;5106469;27;20074;-63
2022/06/24 03:10:20;;;;;;;13.15;8.43;;;19.30;99.90;;;;;;5106471;28;21648;-64
2022/06/24 03:12:46;;;;;;;12.90;7.72;;;19.30;99.90;;;;;;5104476;27;20036;-64
2022/06/24 03:15:12;;;;;;;11.77;8.48;;;19.30;99.90;;;;;;5107091;27;20046;-64
2022/06/24 03:17:38;;;;;;;18.95;8.45;;;19.20;99.90;;;;;;5087432;28;20174;-64
2022/06/24 03:20:08;;;;;;;12.77;8.10;;;19.20;99.90;;;;;;5106878;28;20126;-63
2022/06/24 03:22:34;;;;;;;16.75;9.30;;;19.30;99.90;;;;;;5107128;28;20023;-63
2022/06/24 03:25:00;;;;;;;21.80;8.77;;;19.30;99.90;;;;;;5108417;27;20024;-63
2022/06/24 03:27:26;;;;;;;16.55;9.13;;;19.30;99.90;;;;;;5107649;27;20023;-63
2022/06/24 03:29:51;;;;;;;12.80;9.30;;;19.30;99.90;;;;;;5116917;27;20492;-63
2022/06/24 03:32:17;;;;;;;18.42;10.00;;;19.30;99.90;;;;;;5109871;27;20061;-63
2022/06/24 03:34:43;;;;;;;19.27;9.65;;;19.30;99.90;;;;;;5113792;27;20028;-63
2022/06/24 03:37:09;;;;;;;19.55;10.38;;;19.30;99.90;;;;;;5109160;28;20027;-64
2022/06/24 03:39:35;;;;;;;21.88;11.25;;;19.30;99.90;;;;;;5109545;27;20031;-63
2022/06/24 03:42:01;;;;;;;16.08;9.07;;;19.30;99.90;;;;;;5106234;28;20087;-64
2022/06/24 03:44:27;;;;;;;18.95;10.65;;;19.30;99.90;;;;;;5107521;27;20039;-63
2022/06/24 03:46:52;;;;;;;16.17;10.85;;;19.40;99.90;;;;;;5103486;27;20023;-64
2022/06/24 03:49:19;;;;;;;20.02;10.55;;;19.40;99.90;;;;;;5116633;27;20389;-63
2022/06/24 03:51:45;;;;;;;18.67;10.02;;;19.40;99.90;;;;;;5107006;27;20386;-63
2022/06/24 03:54:11;;;;;;;16.08;11.40;;;19.40;99.90;;;;;;5108509;28;20035;-63
2022/06/24 03:56:37;;;;;;;14.27;11.10;;;19.50;99.90;;;;;;5114892;27;20421;-64
2022/06/24 03:59:03;;;;;;;19.58;11.27;;;19.50;99.90;;;;;;5111589;27;20511;-63
2022/06/24 04:01:29;;;;;;;15.60;10.40;;;19.40;99.90;;;;;;5101243;28;20024;-63
2022/06/24 04:03:54;;;;;;;19.27;12.63;;;19.50;99.90;;;;;;5112256;27;20032;-63
2022/06/24 04:06:20;;;;;;;19.55;12.05;;;19.40;99.90;;;;;;5102476;28;20032;-63
2022/06/24 04:08:46;;;;;;;16.55;11.65;;;19.50;99.90;;;;;;5107657;28;20439;-64
2022/06/24 04:11:13;;;;;;;21.83;12.88;;;19.40;99.90;;;;;;5110494;28;20434;-63
2022/06/24 04:13:38;;;;;;;21.58;12.90;;;19.50;99.90;;;;;;5107783;28;20035;-64
2022/06/24 04:16:04;;;;;;;21.83;12.20;;;19.40;99.90;;;;;;5104609;28;20024;-64
2022/06/24 04:18:30;;;;;;;19.70;12.48;;;19.40;99.90;;;;;;5100333;27;20126;-64
2022/06/24 04:20:56;;;;;;;17.80;11.35;;;19.40;99.90;;;;;;5100285;28;20119;-64
2022/06/24 04:23:21;;;;;;;19.33;11.98;;;19.40;99.90;;;;;;5098790;28;20393;-64
2022/06/24 04:25:48;;;;;;;20.83;12.32;;;19.50;99.90;;;;;;5099108;28;20489;-64
2022/06/24 04:28:13;;;;;;;17.90;12.65;;;19.50;99.90;;;;;;5099605;28;20034;-62
2022/06/24 04:30:39;;;;;;;18.90;13.02;;;19.50;99.90;;;;;;5098386;28;20023;-64
2022/06/24 04:33:05;;;;;;;20.98;12.57;;;19.50;99.90;;;;;;5098689;28;20108;-64
2022/06/24 04:35:30;;;;;;;20.95;12.45;;;19.50;99.90;;;;;;5098909;28;20063;-64
2022/06/24 04:37:56;;;;;;;21.75;14.18;;;19.50;99.90;;;;;;5099280;28;20036;-63
2022/06/24 04:40:22;;;;;;;23.05;13.18;;;19.50;99.90;;;;;;5099626;28;20035;-64
2022/06/24 04:42:47;;;;;;;21.77;13.30;;;19.50;99.90;;;;;;5101533;28;20385;-64
2022/06/24 04:45:13;;;;;;;16.33;12.00;;;19.40;99.90;;;;;;5100077;28;20015;-64
2022/06/24 04:47:39;;;;;;;22.00;13.00;;;19.50;99.90;;;;;;5099407;28;20027;-63
2022/06/24 04:50:06;;;;;;;16.95;12.35;;;19.50;99.90;;;;;;5098445;28;20156;-64
2022/06/24 04:52:32;;;;;;;19.63;12.35;;;19.50;99.90;;;;;;5102301;28;20039;-64
2022/06/24 04:54:59;;;;;;;16.67;11.10;;;19.60;99.90;;;;;;5084650;28;20035;-64
2022/06/24 04:57:24;;;;;;;16.80;11.07;;;19.50;99.90;;;;;;5102720;27;20024;-64
2022/06/24 04:59:50;;;;;;;17.95;11.18;;;19.60;99.90;;;;;;5105023;27;20378;-64
2022/06/24 05:02:15;;;;;;;19.85;11.93;;;19.60;99.90;;;;;;5105018;27;20058;-64
2022/06/24 05:04:41;;;;;;;17.58;12.00;;;19.60;99.90;;;;;;5103683;27;20107;-64
2022/06/24 05:07:07;;;;;;;15.27;10.95;;;19.60;99.90;;;;;;5112087;27;20032;-64
2022/06/24 05:09:33;;;;;;;16.67;10.27;;;19.60;99.90;;;;;;5108882;28;20553;-64
2022/06/24 05:11:59;;;;;;;19.45;10.75;;;19.60;99.90;;;;;;5108624;27;20098;-64
2022/06/24 05:14:25;;;;;;;14.85;8.65;;;19.60;99.90;;;;;;5110773;27;20485;-64
2022/06/24 05:16:51;;;;;;;14.07;9.18;;;19.60;99.90;;;;;;5115250;27;20034;-64
2022/06/24 05:19:16;;;;;;;13.27;8.20;;;19.70;99.90;;;;;;5117717;27;20482;-64
2022/06/24 05:21:42;;;;;;;12.02;7.78;;;19.70;99.90;;;;;;5113102;28;20024;-64
2022/06/24 05:24:08;;;;;;;15.75;8.32;;;19.60;99.90;;;;;;5106254;27;20029;-64
2022/06/24 05:26:34;;;;;;;13.25;6.55;;;19.60;99.90;;;;;;5108318;27;20023;-63
2022/06/24 05:29:00;;;;;;;16.08;5.88;;;19.60;99.90;;;;;;5113335;28;20073;-64
2022/06/24 05:31:26;;;;;;;17.52;6.38;;;19.60;99.90;;;;;;5108387;28;20023;-64
2022/06/24 05:33:51;;;;;;;12.55;5.93;;;19.60;99.90;;;;;;5107106;28;20031;-64
2022/06/24 05:36:17;;;;;;;14.30;5.93;;;19.60;99.90;;;;;;5108906;28;20020;-64
2022/06/24 05:38:44;;;;;;;18.92;6.10;;;19.60;99.90;;;;;;5102785;28;20039;-64
2022/06/24 05:41:09;;;;;;;19.23;5.53;;;19.60;99.90;;;;;;5110520;27;20024;-64
2022/06/24 05:43:35;;;;;;;15.45;5.45;;;19.60;99.90;;;;;;5100143;28;20371;-64
2022/06/24 05:46:00;;;;;;;9.73;5.13;;;19.60;99.90;;;;;;5110839;28;20108;-64
2022/06/24 05:48:27;;;;;;;14.93;6.35;;;19.60;99.90;;;;;;5111303;28;20715;-64
2022/06/24 05:50:52;;;;;;;15.57;6.03;;;19.60;99.90;;;;;;5110950;28;20030;-64
2022/06/24 05:56:03;;;;;;;12.52;5.60;;;19.60;99.90;;;;;;5104753;28;20085;-64
2022/06/24 05:58:29;;;;;;;10.02;5.38;;;19.70;99.90;;;;;;5111604;28;20024;-64
2022/06/24 06:00:56;;;;;;;16.63;6.13;;;19.70;99.90;;;;;;5109508;28;20031;-64
2022/06/24 06:03:22;;;;;;;8.00;4.50;;;19.70;99.90;;;;;;5109204;28;20123;-63
2022/06/24 06:05:48;;;;;;;6.85;4.35;;;19.80;99.90;;;;;;5111227;28;20107;-64
2022/06/24 06:08:15;;;;;;;10.70;4.65;;;19.90;99.90;;;;;;5110907;28;20102;-62
2022/06/24 06:10:43;;;;;;;16.80;6.72;;;19.90;99.90;;;;;;5108441;28;20023;-64
2022/06/24 06:13:12;;;;;;;12.77;4.88;;;19.90;99.90;;;;;;5112031;28;20077;-64
2022/06/24 06:15:38;;;;;;;13.70;4.60;;;19.80;99.90;;;;;;5111474;28;20031;-64
2022/06/24 06:18:05;;;;;;;9.90;4.82;;;19.90;99.90;;;;;;5110214;28;20107;-63
2022/06/24 06:20:30;;;;;;;12.65;5.10;;;19.90;99.90;;;;;;5105283;27;20547;-64
2022/06/24 06:22:56;;;;;;;9.65;5.07;;;19.80;99.90;;;;;;5107210;28;20032;-64
2022/06/24 06:25:22;;;;;;;6.97;4.05;;;19.70;99.90;;;;;;5111493;28;20046;-65
2022/06/24 06:27:49;;;;;;;8.45;4.72;;;19.80;99.90;;;;;;5112034;28;20409;-64
2022/06/24 06:30:15;;;;;;;13.32;4.30;;;19.80;99.90;;;;;;5111943;28;20965;-64
2022/06/24 06:32:40;;;;;;;10.75;5.22;;;19.90;99.90;;;;;;5109272;28;20016;-63
2022/06/24 06:35:06;;;;;;;14.50;4.38;;;19.90;99.90;;;;;;5111883;28;20023;-65
2022/06/24 06:37:32;;;;;;;10.18;4.63;;;19.90;99.90;;;;;;5111177;28;20024;-64
2022/06/24 06:39:58;;;;;;;8.73;4.22;;;19.90;99.90;;;;;;5111414;28;20039;-64
2022/06/24 06:42:24;;;;;;;12.40;4.18;;;20.00;99.90;;;;;;5112191;28;20024;-64
2022/06/24 06:44:49;;;;;;;12.52;4.40;;;20.10;99.90;;;;;;5111873;27;20036;-63
2022/06/24 06:47:15;;;;;;;9.75;4.28;;;20.10;99.90;;;;;;5110072;28;20028;-64
2022/06/24 06:49:40;;;;;;;12.40;4.65;;;20.10;99.90;;;;;;5112824;28;20035;-64
2022/06/24 06:52:06;;;;;;;11.48;4.97;;;20.10;99.90;;;;;;5110694;28;20027;-64
2022/06/24 06:54:31;;;;;;;8.30;3.78;;;20.20;99.90;;;;;;5112219;28;20073;-64
2022/06/24 06:56:57;;;;;;;10.48;4.20;;;20.10;99.90;;;;;;5109680;28;20027;-64
2022/06/24 06:59:23;;;;;;;9.88;3.30;;;20.10;99.90;;;;;;5112508;28;20474;-64
2022/06/24 07:01:49;;;;;;;19.17;4.55;;;20.10;99.90;;;;;;5108969;28;20085;-64
2022/06/24 07:04:15;;;;;;;16.45;5.68;;;20.10;99.90;;;;;;5110082;28;20023;-64
2022/06/24 07:06:40;;;;;;;7.15;3.47;;;20.20;99.90;;;;;;5109099;28;20036;-64
2022/06/24 07:09:06;;;;;;;8.30;3.85;;;20.20;99.90;;;;;;5109501;28;20092;-64
2022/06/24 07:11:32;;;;;;;13.60;4.82;;;20.20;99.90;;;;;;5106856;28;20032;-64
2022/06/24 07:13:58;;;;;;;13.93;4.20;;;20.30;99.90;;;;;;5110817;28;20074;-65
2022/06/24 07:16:24;;;;;;;10.15;4.15;;;20.30;99.90;;;;;;5109829;28;20047;-64
2022/06/24 07:18:49;;;;;;;11.60;4.15;;;20.20;99.90;;;;;;5109561;28;20035;-64
2022/06/24 07:21:15;;;;;;;10.07;4.35;;;20.30;99.90;;;;;;5111287;28;20385;-64
2022/06/24 07:23:41;;;;;;;9.60;3.50;;;20.20;99.90;;;;;;5108012;28;20019;-65
2022/06/24 07:26:07;;;;;;;6.38;2.47;;;20.10;99.90;;;;;;5106755;28;20090;-64
2022/06/24 07:28:36;;;;;;;2.65;1.60;;;19.80;99.90;;;;;;5101924;28;20024;-65
2022/06/24 07:31:18;;;;;;;3.40;2.05;;;19.60;99.90;;;;;;5106268;28;20032;-65
2022/06/24 07:33:44;;;;;;;9.75;2.97;;;19.30;99.90;;;;;;5105515;28;20031;-65
2022/06/24 07:36:10;;;;;;;8.63;3.55;;;19.30;99.90;;;;;;5105329;28;20038;-65
2022/06/24 07:38:36;;;;;;;8.43;4.00;;;18.90;99.90;;;;;;5111071;28;20441;-66
2022/06/24 07:41:01;;;;;;;10.43;4.18;;;18.80;99.90;;;;;;5105391;28;20027;-65
2022/06/24 07:43:27;;;;;;;9.05;3.90;;;18.80;99.90;;;;;;5110885;28;20019;-66
2022/06/24 07:45:53;;;;;;;8.70;4.53;;;18.70;99.90;;;;;;5110380;28;20015;-66
2022/06/24 07:48:19;;;;;;;8.13;4.50;;;18.70;99.90;;;;;;5110862;28;20019;-65
2022/06/24 07:50:44;;;;;;;8.88;4.88;;;18.60;99.90;;;;;;5111966;28;20113;-66
2022/06/24 07:53:10;;;;;;;6.95;5.38;;;18.60;99.90;;;;;;5110019;28;20016;-65
2022/06/24 07:58:20;;;;;;;13.02;6.72;;;18.50;99.90;;;;;;5104407;28;20042;-65
2022/06/24 08:00:47;;;;;;;9.80;6.15;;;18.50;99.90;;;;;;5112517;27;20027;-65
2022/06/24 08:03:12;;;;;;;11.32;7.28;;;18.50;99.90;;;;;;5103922;28;20027;-65
2022/06/24 08:05:38;;;;;;;13.95;7.93;;;18.60;99.90;;;;;;5110942;28;20393;-65
2022/06/24 08:08:04;;;;;;;9.90;6.88;;;18.50;99.90;;;;;;5108922;28;20122;-65
2022/06/24 08:10:29;;;;;;;11.80;8.13;;;18.50;99.90;;;;;;5110130;28;20042;-65
2022/06/24 08:12:55;;;;;;;11.73;7.97;;;18.50;99.90;;;;;;5110967;28;20032;-65
2022/06/24 08:15:20;;;;;;;9.77;7.35;;;18.50;99.90;;;;;;5109887;28;20028;-65
2022/06/24 08:17:46;;;;;;;10.65;7.93;;;18.50;99.90;;;;;;5109291;28;20091;-65
2022/06/24 08:20:12;;;;;;;12.57;7.40;;;18.50;99.90;;;;;;5103561;28;20092;-65
2022/06/24 08:22:37;;;;;;;15.23;7.80;;;18.50;99.90;;;;;;5110650;28;20020;-65
2022/06/24 08:25:03;;;;;;;17.42;7.38;;;18.40;99.90;;;;;;5110091;28;20073;-65
2022/06/24 08:27:29;;;;;;;12.68;8.02;;;18.50;99.90;;;;;;5109754;28;20089;-65
2022/06/24 08:29:54;;;;;;;11.75;8.02;;;18.50;99.90;;;;;;5110389;28;20035;-65
2022/06/24 08:32:20;;;;;;;10.57;8.43;;;18.40;99.90;;;;;;5111543;28;20446;-65
2022/06/24 08:34:45;;;;;;;12.98;7.10;;;18.40;99.90;;;;;;5093509;28;20027;-65
2022/06/24 08:37:11;;;;;;;16.38;8.68;;;18.40;99.90;;;;;;5111820;28;20028;-66
2022/06/24 08:39:36;;;;;;;12.93;8.32;;;18.50;99.90;;;;;;5111838;28;20031;-65
2022/06/24 08:42:04;;;;;;;17.98;8.73;;;18.50;99.90;;;;;;5110864;28;20386;-65
2022/06/24 08:44:30;;;;;;;13.48;8.40;;;18.50;99.90;;;;;;5111719;28;20529;-65
2022/06/24 08:46:55;;;;;;;12.20;8.98;;;18.50;99.90;;;;;;5111478;28;20095;-65
2022/06/24 08:49:21;;;;;;;14.27;8.07;;;18.50;99.90;;;;;;5111772;28;20027;-65
2022/06/24 08:51:48;;;;;;;15.00;9.50;;;18.60;99.90;;;;;;5111228;28;20104;-65
2022/06/24 08:54:17;;;;;;;14.63;8.13;;;18.70;99.90;;;;;;5111652;28;20031;-65
2022/06/24 08:56:43;;;;;;;16.63;9.13;;;18.70;99.90;;;;;;5106435;22;20040;-61
2022/06/24 08:59:09;;;;;;;14.32;9.73;;;18.70;99.90;;;;;;5069179;28;20090;-62
2022/06/24 09:01:41;;;;;;;13.80;9.73;;;18.70;99.90;;;;;;5068061;28;20026;-61
2022/06/24 09:04:09;;;;;;;14.68;9.02;;;18.70;99.90;;;;;;5069641;28;20080;-61
2022/06/24 09:06:39;;;;;;;14.85;8.82;;;18.70;99.90;;;;;;5071633;28;20572;-61
2022/06/24 09:09:04;;;;;;;12.55;9.05;;;18.80;99.90;;;;;;5064629;28;20036;-61
2022/06/24 09:11:39;;;;;;;14.65;9.02;;;18.90;99.90;;;;;;5049465;28;20033;-61
2022/06/24 09:14:05;;;;;;;12.68;9.20;;;18.90;99.90;;;;;;5049669;28;20017;-61
2022/06/24 09:16:32;;;;;;;15.60;8.40;;;19.10;99.90;;;;;;5051823;28;20021;-62
2022/06/24 09:19:00;;;;;;;15.73;9.68;;;19.20;99.90;;;;;;5055813;28;20088;-62
2022/06/24 09:21:34;;;;;;;15.95;9.68;;;19.20;99.90;;;;;;5063421;28;20028;-61
2022/06/24 09:24:03;;;;;;;17.87;9.53;;;19.30;99.90;;;;;;5055948;28;20021;-61
2022/06/24 09:26:31;;;;;;;15.68;8.98;;;19.40;99.90;;;;;;5055359;28;20083;-61
2022/06/24 09:28:57;;;;;;;19.60;10.32;;;19.50;99.90;;;;;;5058725;28;20041;-61
2022/06/24 09:31:28;;;;;;;12.15;8.30;;;19.60;99.90;;;;;;5053144;28;20078;-61
2022/06/24 09:33:54;;;;;;;13.57;8.65;;;19.90;99.90;;;;;;5048090;28;20395;-60
2022/06/24 09:36:25;;;;;;;13.23;8.75;;;20.00;99.90;;;;;;5053126;28;20033;-61
2022/06/24 09:39:02;;;;;;;14.70;8.88;;;20.00;99.90;;;;;;5051726;28;20082;-61
2022/06/24 09:41:28;;;;;;;14.07;9.18;;;20.00;99.90;;;;;;5052368;28;20020;-62
2022/06/24 09:43:57;;;;;;;12.52;6.97;;;20.00;99.90;;;;;;5058786;28;20031;-59
2022/06/24 09:46:24;;;;;;;12.35;8.20;;;20.00;99.90;;;;;;5054319;28;20025;-61
2022/06/24 09:48:53;;;;;;;9.40;7.20;;;20.20;99.90;;;;;;5053255;28;20037;-61
2022/06/24 09:51:19;;;;;;;11.00;7.55;;;20.20;99.90;;;;;;5050623;28;20025;-60
2022/06/24 09:53:45;;;;;;;12.77;6.45;;;20.40;99.90;;;;;;5049847;28;20025;-58
2022/06/24 09:56:11;;;;;;;9.65;6.22;;;20.50;99.90;;;;;;5052740;28;20033;-60
2022/06/24 09:58:38;;;;;;;10.68;6.07;;;20.60;99.90;;;;;;5056176;28;20093;-60
2022/06/24 10:01:04;;;;;;;8.23;5.63;;;20.80;99.90;;;;;;5050247;28;21775;-60
2022/06/24 10:03:30;;;;;;;9.32;5.97;;;20.90;99.90;;;;;;5053049;28;20362;-60
2022/06/24 10:06:04;;;;;;;6.55;4.40;;;21.00;99.90;;;;;;5070424;28;20025;-60
2022/06/24 10:08:33;;;;;;;11.07;5.22;;;21.20;99.90;;;;;;5071983;28;20020;-60
2022/06/24 10:11:00;;;;;;;6.47;4.50;;;21.00;99.90;;;;;;5033718;28;20041;-60
2022/06/24 10:13:32;;;;;;;5.63;4.30;;;21.20;99.90;;;;;;5033702;28;20022;-60
2022/06/24 10:16:00;;;;;;;5.80;4.68;;;21.30;99.90;;;;;;5072986;28;20112;-61
2022/06/24 10:18:46;;;;;;;8.02;4.10;;;21.60;99.90;;;;;;5073605;28;20021;-60
2022/06/24 10:21:12;;;;;;;7.93;4.47;;;21.80;99.90;;;;;;5073498;28;20115;-58
2022/06/24 10:23:41;;;;;;;5.40;3.53;;;21.70;99.90;;;;;;5073030;28;20021;-61
2022/06/24 10:26:28;;;;;;;5.38;3.58;;;21.60;99.90;;;;;;5053516;28;20622;-59
2022/06/24 10:29:00;;;;;;;6.40;4.03;;;21.70;99.90;;;;;;5053506;28;20052;-57
2022/06/24 10:31:49;;;;;;;5.35;3.92;;;21.80;99.90;;;;;;5053055;28;20021;-60
2022/06/24 10:34:20;;;;;;;6.70;3.97;;;22.10;99.90;;;;;;5051585;28;20110;-60
2022/06/24 10:36:46;;;;;;;10.40;4.03;;;22.10;99.90;;;;;;5073192;28;20522;-57
2022/06/24 10:39:16;;;;;;;6.38;4.32;;;22.00;99.90;;;;;;5053986;28;20024;-60
2022/06/24 10:41:42;;;;;;;6.22;4.05;;;21.80;99.90;;;;;;5052741;28;20110;-58
2022/06/24 10:44:25;;;;;;;9.95;5.10;;;21.70;99.90;;;;;;5056788;28;20381;-57
2022/06/24 10:47:10;;;;;;;10.18;5.43;;;21.90;99.90;;;;;;5073046;28;20502;-58
2022/06/24 10:49:51;;;;;;;9.32;4.50;;;22.10;99.90;;;;;;5073088;28;20024;-59
2022/06/24 10:52:48;;;;;;;8.18;4.78;;;22.60;99.90;;;;;;5072775;28;20024;-59
2022/06/24 10:55:16;;;;;;;7.63;5.00;;;22.60;99.90;;;;;;5060843;28;20029;-60
2022/06/24 10:57:56;;;;;;;7.95;5.10;;;22.90;99.90;;;;;;5052976;28;20025;-60
2022/06/24 11:00:21;;;;;;;8.38;4.13;;;22.80;99.90;;;;;;5052805;28;20052;-60
2022/06/24 11:03:07;;;;;;;13.15;5.05;;;22.80;99.90;;;;;;5052497;28;20067;-59
2022/06/24 11:05:35;;;;;;;5.75;4.05;;;23.00;99.90;;;;;;5055247;28;20041;-60
2022/06/24 11:08:08;;;;;;;6.00;4.40;;;23.50;99.90;;;;;;5059145;28;20032;-58
2022/06/24 11:10:34;;;;;;;9.48;4.72;;;23.80;99.90;;;;;;5052732;28;20487;-57
2022/06/24 11:13:01;;;;;;;5.85;3.63;;;24.00;99.90;;;;;;5052358;28;20025;-59
2022/06/24 11:15:41;;;;;;;7.50;4.00;;;24.20;99.90;;;;;;5055048;28;20029;-58
2022/06/24 11:18:19;;;;;;;5.88;4.28;;;24.10;99.90;;;;;;5052566;28;20466;-59
2022/06/24 11:20:54;;;;;;;7.15;3.70;;;23.80;99.90;;;;;;5052483;28;20075;-60
2022/06/24 11:23:22;;;;;;;4.40;3.50;;;23.50;99.90;;;;;;5052141;28;20479;-60
2022/06/24 11:25:56;;;;;;;7.38;4.85;;;23.50;99.90;;;;;;5065172;28;20025;-60
2022/06/24 11:28:24;;;;;;;8.90;4.72;;;23.20;99.90;;;;;;5066701;28;20530;-60
2022/06/24 11:30:51;;;;;;;5.65;4.32;;;22.80;99.90;;;;;;5052259;28;20037;-60
2022/06/24 11:33:17;;;;;;;6.85;5.93;;;22.80;99.90;;;;;;5052005;28;20112;-59
2022/06/24 11:35:44;;;;;;;6.95;4.95;;;22.60;99.90;;;;;;5063854;28;20486;-60
2022/06/24 11:38:10;;;;;;;11.15;6.07;;;22.50;99.90;;;;;;5072210;28;20044;-59
2022/06/24 11:40:37;;;;;;;9.52;5.63;;;22.40;99.90;;;;;;5071954;28;20465;-58
2022/06/24 11:43:04;;;;;;;6.78;6.10;;;22.20;99.90;;;;;;5071830;28;20047;-57
2022/06/24 11:45:34;;;;;;;8.93;6.93;;;22.10;99.90;;;;;;5058952;28;20110;-58
2022/06/24 11:48:00;;;;;;;11.90;7.03;;;21.90;99.90;;;;;;5051995;28;20099;-58
2022/06/24 11:50:26;;;;;;;11.63;6.47;;;21.90;99.90;;;;;;5051745;28;20049;-59
2022/06/24 11:52:52;;;;;;;6.97;5.90;;;21.80;99.90;;;;;;5051588;28;20051;-58
2022/06/24 11:55:31;;;;;;;9.25;6.72;;;22.00;99.90;;;;;;5061983;28;20107;-59
2022/06/24 11:57:58;;;;;;;12.05;5.20;;;22.00;99.90;;;;;;5071896;28;20063;-60
2022/06/24 12:00:26;;;;;;;10.50;5.80;;;22.10;99.90;;;;;;5071872;28;20352;-57
2022/06/24 12:02:53;;;;;;;8.02;5.85;;;22.60;99.90;;;;;;5071490;28;20041;-59
2022/06/24 12:05:23;;;;;;;10.63;6.57;;;23.00;99.90;;;;;;5060693;28;20029;-61
2022/06/24 12:07:50;;;;;;;9.85;5.90;;;23.40;99.90;;;;;;5051981;28;20479;-58
2022/06/24 12:10:15;;;;;;;7.55;4.60;;;24.00;99.90;;;;;;5051614;28;20033;-58
2022/06/24 12:12:55;;;;;;;9.90;5.80;;;24.30;99.90;;;;;;5051304;28;20493;-59
2022/06/24 12:15:41;;;;;;;9.13;5.50;;;24.10;99.90;;;;;;5061862;28;20032;-57
2022/06/24 12:18:15;;;;;;;7.20;5.32;;;24.00;99.90;;;;;;5057226;28;20044;-59
2022/06/24 12:20:41;;;;;;;6.35;4.50;;;24.50;99.90;;;;;;5071481;28;20082;-58
2022/06/24 12:23:12;;;;;;;6.20;4.13;;;24.60;99.90;;;;;;5071228;28;20029;-60
2022/06/24 12:25:40;;;;;;;8.38;4.47;;;24.70;99.90;;;;;;5058355;28;20108;-60
2022/06/24 12:28:13;;;;;;;7.80;3.78;;;24.60;99.90;;;;;;5051406;28;20036;-60
2022/06/24 12:30:38;;;;;;;5.67;3.73;;;24.40;99.90;;;;;;5051328;28;20020;-60
2022/06/24 12:33:12;;;;;;;18.50;5.38;;;24.30;99.90;;;;;;5051067;28;20032;-59
2022/06/24 12:35:38;;;;;;;6.45;3.30;;;23.80;99.90;;;;;;5063890;28;20020;-59
2022/06/24 12:38:04;;;;;;;8.40;4.18;;;23.80;99.90;;;;;;5071387;28;20029;-59
2022/06/24 12:40:30;;;;;;;7.03;4.00;;;23.70;99.90;;;;;;5071479;28;20037;-58
2022/06/24 12:43:11;;;;;;;5.57;3.70;;;23.70;99.90;;;;;;5071046;28;20402;-60
2022/06/24 12:45:38;;;;;;;4.57;3.60;;;23.80;99.90;;;;;;5058400;28;20027;-58
2022/06/24 12:50:57;;;;;;;5.38;3.53;;;23.70;99.90;;;;;;5051120;28;20069;-59